Time;durP1;ratioP1;P1;durP2;ratioP2;P2;SDS_P1;SDS_P2;PMS_P1;PMS_P2;Temp;Humidity;BMP_temperature;BMP_pressure;BME280_temperature;BME280_humidity;BME280_pressure;Samples;Min_cycle;Max_cycle;Signal;HPM_P1;HPM_P2
2022/11/24 00:01:06;;;;;;;11.88;3.58;;;;;;;;;;5012093;28;20095;-71
2022/11/24 00:03:32;;;;;;;23.27;4.60;;;;;;;;;;5019197;28;20061;-70
2022/11/24 00:06:06;;;;;;;24.40;4.18;;;;;;;;;;5017685;28;20432;-71
2022/11/24 00:08:33;;;;;;;26.20;4.82;;;;;;;;;;5012091;28;20142;-71
2022/11/24 00:11:03;;;;;;;18.10;4.80;;;;;;;;;;5005087;28;20547;-69
2022/11/24 00:13:30;;;;;;;20.67;3.50;;;;;;;;;;5003535;28;20579;-71
2022/11/24 00:16:02;;;;;;;20.30;4.43;;;;;;;;;;5007444;28;20054;-71
2022/11/24 00:18:29;;;;;;;13.82;3.10;;;;;;;;;;5017507;28;20062;-70
2022/11/24 00:20:55;;;;;;;22.65;3.33;;;;;;;;;;5021966;28;20100;-69
2022/11/24 00:23:21;;;;;;;22.63;3.30;;;;;;;;;;5004997;28;20058;-70
2022/11/24 00:25:48;;;;;;;18.77;3.70;;;;;;;;;;5009274;28;20058;-69
2022/11/24 00:28:14;;;;;;;18.83;4.18;;;;;;;;;;5019924;28;20050;-71
2022/11/24 00:30:40;;;;;;;13.90;2.65;;;;;;;;;;5013887;28;20062;-69
2022/11/24 00:33:07;;;;;;;21.13;4.53;;;;;;;;;;5017548;28;20069;-70
2022/11/24 00:35:33;;;;;;;14.88;3.50;;;;;;;;;;5011818;28;20058;-70
2022/11/24 00:37:59;;;;;;;23.65;3.38;;;;;;;;;;5006234;28;20049;-69
2022/11/24 00:40:26;;;;;;;16.25;2.95;;;;;;;;;;5011385;28;20162;-69
2022/11/24 00:43:00;;;;;;;17.83;4.13;;;;;;;;;;5002241;28;20130;-70
2022/11/24 00:45:26;;;;;;;12.85;3.25;;;;;;;;;;5015997;28;20054;-70
2022/11/24 00:47:52;;;;;;;11.85;3.00;;;;;;;;;;5012959;28;20559;-70
2022/11/24 00:50:20;;;;;;;17.85;3.00;;;;;;;;;;5002752;28;20065;-70
2022/11/24 00:52:46;;;;;;;11.10;2.88;;;;;;;;;;5001231;28;20527;-71
2022/11/24 00:55:12;;;;;;;14.70;3.35;;;;;;;;;;5016637;28;20515;-70
2022/11/24 00:57:39;;;;;;;20.65;3.60;;;;;;;;;;5015433;28;20053;-69
2022/11/24 01:00:05;;;;;;;18.00;3.70;;;;;;;;;;5018165;28;20590;-69
2022/11/24 01:02:32;;;;;;;20.90;4.32;;;;;;;;;;5018476;28;20041;-69
2022/11/24 01:04:58;;;;;;;19.65;3.70;;;;;;;;;;5002688;28;20142;-70
2022/11/24 01:07:24;;;;;;;18.10;3.72;;;;;;;;;;5002019;28;20050;-69
2022/11/24 01:09:51;;;;;;;29.60;5.47;;;;;;;;;;5007226;28;20061;-72
2022/11/24 01:12:17;;;;;;;17.45;3.42;;;;;;;;;;5019416;28;20484;-70
2022/11/24 01:14:43;;;;;;;14.52;3.17;;;;;;;;;;5004131;28;20053;-70
2022/11/24 01:17:10;;;;;;;16.73;3.55;;;;;;;;;;5019856;28;20050;-71
2022/11/24 01:19:36;;;;;;;15.20;3.88;;;;;;;;;;5020739;28;20510;-70
2022/11/24 01:22:03;;;;;;;24.58;3.72;;;;;;;;;;5022298;28;20054;-71
2022/11/24 01:24:29;;;;;;;17.70;3.50;;;;;;;;;;5021647;28;20058;-71
2022/11/24 01:26:55;;;;;;;16.95;3.03;;;;;;;;;;5024868;28;20107;-70
2022/11/24 01:29:22;;;;;;;20.63;3.22;;;;;;;;;;5016889;28;20054;-70
2022/11/24 01:31:48;;;;;;;19.95;3.75;;;;;;;;;;5014915;28;20054;-71
2022/11/24 01:34:14;;;;;;;22.13;3.95;;;;;;;;;;5019104;28;20058;-71
2022/11/24 01:36:40;;;;;;;22.00;4.13;;;;;;;;;;5010774;28;20062;-68
2022/11/24 01:39:07;;;;;;;14.60;3.65;;;;;;;;;;5012390;28;20046;-71
2022/11/24 01:41:34;;;;;;;14.60;3.58;;;;;;;;;;5021690;28;20184;-71
2022/11/24 01:44:18;;;;;;;18.77;3.63;;;;;;;;;;5007955;28;20046;-70
2022/11/24 01:46:47;;;;;;;16.55;3.33;;;;;;;;;;5019342;28;20046;-71
2022/11/24 01:49:18;;;;;;;16.23;3.63;;;;;;;;;;5019236;28;20050;-70
2022/11/24 01:51:48;;;;;;;18.90;3.53;;;;;;;;;;5020773;28;20057;-71
2022/11/24 01:54:17;;;;;;;11.25;2.60;;;;;;;;;;5020718;28;20046;-71
2022/11/24 01:56:45;;;;;;;12.98;3.13;;;;;;;;;;5022684;28;20104;-71
2022/11/24 01:59:13;;;;;;;16.67;3.25;;;;;;;;;;5019512;28;20070;-71
2022/11/24 02:01:39;;;;;;;19.60;3.40;;;;;;;;;;5012486;28;20637;-71
2022/11/24 02:04:09;;;;;;;16.13;2.97;;;;;;;;;;5015011;28;20054;-70
2022/11/24 02:06:36;;;;;;;14.85;3.00;;;;;;;;;;5003171;28;20071;-71
2022/11/24 02:09:10;;;;;;;15.40;4.05;;;;;;;;;;5015496;28;20101;-71
2022/11/24 02:11:37;;;;;;;18.17;3.25;;;;;;;;;;5006268;28;20050;-70
2022/11/24 02:14:06;;;;;;;12.90;3.75;;;;;;;;;;5010005;28;20047;-71
2022/11/24 02:16:34;;;;;;;9.65;2.72;;;;;;;;;;5017544;28;20050;-72
2022/11/24 02:19:02;;;;;;;9.18;2.60;;;;;;;;;;5021897;28;20057;-69
2022/11/24 02:21:28;;;;;;;10.48;2.67;;;;;;;;;;5021159;28;20146;-70
2022/11/24 02:24:01;;;;;;;13.25;2.60;;;;;;;;;;5019205;28;20054;-71
2022/11/24 02:26:30;;;;;;;16.52;3.03;;;;;;;;;;5018278;28;20097;-71
2022/11/24 02:28:56;;;;;;;14.40;2.60;;;;;;;;;;5018405;28;20054;-69
2022/11/24 02:31:23;;;;;;;13.70;3.42;;;;;;;;;;5006762;28;20054;-69
2022/11/24 02:33:50;;;;;;;12.23;2.50;;;;;;;;;;5015830;28;20141;-71
2022/11/24 02:36:16;;;;;;;29.75;4.35;;;;;;;;;;5007653;28;20061;-70
2022/11/24 02:38:42;;;;;;;12.27;2.85;;;;;;;;;;5018101;28;20073;-69
2022/11/24 02:41:10;;;;;;;15.40;2.58;;;;;;;;;;5009972;28;20051;-70
2022/11/24 02:43:40;;;;;;;15.05;2.83;;;;;;;;;;5003994;28;20059;-70
2022/11/24 02:46:08;;;;;;;14.27;3.20;;;;;;;;;;5044999;28;20093;-70
2022/11/24 02:48:34;;;;;;;9.20;2.83;;;;;;;;;;5006456;28;20054;-71
2022/11/24 02:51:01;;;;;;;11.55;2.78;;;;;;;;;;5011137;28;20061;-71
2022/11/24 02:53:27;;;;;;;15.70;3.00;;;;;;;;;;5018293;28;20053;-70
2022/11/24 02:55:54;;;;;;;11.75;2.78;;;;;;;;;;5007398;28;20058;-71
2022/11/24 02:58:20;;;;;;;13.65;2.90;;;;;;;;;;5013499;28;20054;-72
2022/11/24 03:00:47;;;;;;;12.55;2.58;;;;;;;;;;5019367;28;20054;-70
2022/11/24 03:03:13;;;;;;;14.15;3.30;;;;;;;;;;5019228;28;20062;-71
2022/11/24 03:05:40;;;;;;;17.67;2.83;;;;;;;;;;5012968;28;20054;-70
2022/11/24 03:08:06;;;;;;;11.70;2.22;;;;;;;;;;5017163;28;20054;-71
2022/11/24 03:10:32;;;;;;;8.07;2.20;;;;;;;;;;5043413;28;20961;-71
2022/11/24 03:12:58;;;;;;;5.22;1.95;;;;;;;;;;5022278;28;20058;-71
2022/11/24 03:15:25;;;;;;;12.68;2.90;;;;;;;;;;5022037;28;20217;-71
2022/11/24 03:17:53;;;;;;;12.98;2.42;;;;;;;;;;5018723;28;20057;-72
2022/11/24 03:20:19;;;;;;;15.32;2.75;;;;;;;;;;5016001;28;20132;-69
2022/11/24 03:22:46;;;;;;;13.13;2.60;;;;;;;;;;5023056;28;20508;-70
2022/11/24 03:25:12;;;;;;;11.45;2.03;;;;;;;;;;5023951;28;20140;-72
2022/11/24 03:27:39;;;;;;;9.55;2.38;;;;;;;;;;5027352;28;20050;-70
2022/11/24 03:30:06;;;;;;;10.13;2.42;;;;;;;;;;5007150;28;20047;-69
2022/11/24 03:32:32;;;;;;;13.77;4.43;;;;;;;;;;5023782;28;20434;-70
2022/11/24 03:34:59;;;;;;;11.95;2.47;;;;;;;;;;5035687;28;20057;-72
2022/11/24 03:37:25;;;;;;;12.75;2.40;;;;;;;;;;5006307;28;20507;-70
2022/11/24 03:39:51;;;;;;;14.30;3.47;;;;;;;;;;5004301;28;20046;-71
2022/11/24 03:42:18;;;;;;;15.63;2.42;;;;;;;;;;5004769;28;20603;-72
2022/11/24 03:44:44;;;;;;;13.13;3.08;;;;;;;;;;5007026;28;20466;-71
2022/11/24 03:47:11;;;;;;;11.30;2.22;;;;;;;;;;5024969;28;20042;-71
2022/11/24 03:49:38;;;;;;;6.00;1.83;;;;;;;;;;5015692;28;20058;-70
2022/11/24 03:52:04;;;;;;;14.80;2.85;;;;;;;;;;5004213;28;20085;-72
2022/11/24 03:54:33;;;;;;;13.50;3.00;;;;;;;;;;5007471;28;20046;-71
2022/11/24 03:57:00;;;;;;;10.27;2.50;;;;;;;;;;5023382;28;20534;-69
2022/11/24 03:59:26;;;;;;;8.35;2.03;;;;;;;;;;5003686;28;20046;-71
2022/11/24 04:01:52;;;;;;;5.95;2.05;;;;;;;;;;5021946;28;20057;-71
2022/11/24 04:04:19;;;;;;;11.10;2.55;;;;;;;;;;5009312;28;20100;-70
2022/11/24 04:06:45;;;;;;;10.10;2.38;;;;;;;;;;5014236;28;20053;-71
2022/11/24 04:09:11;;;;;;;14.45;2.60;;;;;;;;;;5023995;28;20054;-70
2022/11/24 04:14:23;;;;;;;14.48;2.67;;;;;;;;;;5015762;28;20077;-71
2022/11/24 04:16:49;;;;;;;7.13;3.55;;;;;;;;;;5022714;28;20056;-70
2022/11/24 04:19:15;;;;;;;19.90;4.13;;;;;;;;;;5013075;28;20054;-70
2022/11/24 04:21:42;;;;;;;12.55;3.40;;;;;;;;;;5019556;28;20318;-70
2022/11/24 04:24:08;;;;;;;9.40;2.58;;;;;;;;;;5017089;28;20050;-72
2022/11/24 04:26:34;;;;;;;8.57;2.40;;;;;;;;;;5018998;28;20130;-71
2022/11/24 04:29:01;;;;;;;19.88;3.38;;;;;;;;;;5007590;28;20054;-71
2022/11/24 04:31:27;;;;;;;7.95;2.92;;;;;;;;;;5004124;28;20054;-70
2022/11/24 04:33:53;;;;;;;10.55;3.10;;;;;;;;;;5018538;28;20496;-71
2022/11/24 04:36:20;;;;;;;10.60;2.45;;;;;;;;;;5021301;28;20053;-70
2022/11/24 04:38:46;;;;;;;12.80;3.25;;;;;;;;;;5020400;28;20060;-71
2022/11/24 04:41:32;;;;;;;8.80;2.55;;;;;;;;;;5021064;28;20085;-70
2022/11/24 04:43:58;;;;;;;14.00;3.85;;;;;;;;;;5017621;28;20050;-69
2022/11/24 04:46:25;;;;;;;11.70;2.85;;;;;;;;;;5016343;28;20133;-71
2022/11/24 04:48:51;;;;;;;13.13;2.78;;;;;;;;;;5020200;28;20045;-71
2022/11/24 04:51:18;;;;;;;8.38;2.20;;;;;;;;;;5019593;28;20516;-71
2022/11/24 04:53:44;;;;;;;10.48;2.65;;;;;;;;;;5011693;28;20049;-71
2022/11/24 04:56:10;;;;;;;13.60;3.55;;;;;;;;;;5004207;28;20055;-69
2022/11/24 04:58:37;;;;;;;10.85;3.20;;;;;;;;;;5014926;28;20058;-70
2022/11/24 05:01:05;;;;;;;15.57;2.90;;;;;;;;;;5007430;28;20049;-72
2022/11/24 05:03:31;;;;;;;11.57;3.45;;;;;;;;;;5012952;28;20460;-70
2022/11/24 05:05:58;;;;;;;12.63;2.90;;;;;;;;;;5003313;28;20535;-70
2022/11/24 05:08:24;;;;;;;11.23;3.60;;;;;;;;;;5018458;28;20061;-70
2022/11/24 05:10:51;;;;;;;8.60;2.67;;;;;;;;;;5021266;28;20053;-70
2022/11/24 05:13:17;;;;;;;11.85;2.90;;;;;;;;;;5019379;28;20058;-72
2022/11/24 05:15:43;;;;;;;13.27;3.58;;;;;;;;;;5011221;28;20055;-69
2022/11/24 05:18:11;;;;;;;9.80;2.78;;;;;;;;;;5014049;28;20069;-69
2022/11/24 05:20:38;;;;;;;7.53;2.28;;;;;;;;;;5018111;28;20060;-70
2022/11/24 05:23:05;;;;;;;8.20;2.60;;;;;;;;;;5014433;28;20053;-70
2022/11/24 05:25:33;;;;;;;7.78;2.25;;;;;;;;;;5014718;28;20061;-70
2022/11/24 05:28:00;;;;;;;9.85;2.50;;;;;;;;;;5004230;28;20468;-71
2022/11/24 05:30:26;;;;;;;9.27;1.98;;;;;;;;;;5022742;28;20058;-70
2022/11/24 05:32:53;;;;;;;2.40;1.48;;;;;;;;;;5010795;28;20436;-70
2022/11/24 05:35:20;;;;;;;6.95;1.60;;;;;;;;;;5013535;28;20058;-70
2022/11/24 05:37:46;;;;;;;11.50;1.60;;;;;;;;;;5019140;28;20505;-70
2022/11/24 05:40:13;;;;;;;3.53;1.60;;;;;;;;;;5019705;28;20058;-71
2022/11/24 05:42:39;;;;;;;3.20;1.55;;;;;;;;;;5020486;28;20054;-69
2022/11/24 05:45:13;;;;;;;7.40;1.83;;;;;;;;;;5020286;28;20431;-69
2022/11/24 05:47:40;;;;;;;4.75;1.42;;;;;;;;;;5018474;28;20042;-70
2022/11/24 05:50:08;;;;;;;6.95;0.75;;;;;;;;;;5014869;28;20054;-71
2022/11/24 05:52:35;;;;;;;2.15;0.60;;;;;;;;;;5022910;28;20057;-70
2022/11/24 05:55:01;;;;;;;1.80;0.75;;;;;;;;;;5018018;28;20541;-69
2022/11/24 05:57:28;;;;;;;2.70;0.60;;;;;;;;;;5021737;28;20050;-71
2022/11/24 05:59:54;;;;;;;2.35;0.52;;;;;;;;;;5006862;28;20061;-69
2022/11/24 06:02:20;;;;;;;3.80;0.63;;;;;;;;;;5006766;28;20050;-69
2022/11/24 06:04:47;;;;;;;2.08;0.90;;;;;;;;;;5007556;28;20049;-70
2022/11/24 06:07:13;;;;;;;3.40;0.80;;;;;;;;;;5017072;28;20068;-69
2022/11/24 06:09:40;;;;;;;2.03;0.70;;;;;;;;;;5017360;28;20527;-70
2022/11/24 06:12:06;;;;;;;2.50;0.57;;;;;;;;;;5021497;28;20052;-68
2022/11/24 06:14:33;;;;;;;2.35;1.00;;;;;;;;;;5002985;28;20082;-69
2022/11/24 06:17:00;;;;;;;2.08;0.60;;;;;;;;;;5005646;28;20180;-68
2022/11/24 06:19:26;;;;;;;4.00;0.90;;;;;;;;;;5013085;28;20038;-70
2022/11/24 06:21:53;;;;;;;2.95;0.60;;;;;;;;;;5001272;28;20505;-68
2022/11/24 06:24:20;;;;;;;2.30;0.77;;;;;;;;;;5019610;28;20072;-69
2022/11/24 06:26:46;;;;;;;2.33;1.10;;;;;;;;;;5021712;28;20046;-70
2022/11/24 06:29:12;;;;;;;4.32;0.77;;;;;;;;;;5002218;28;20050;-68
2022/11/24 06:31:39;;;;;;;4.78;1.42;;;;;;;;;;5002472;28;20058;-70
2022/11/24 06:34:06;;;;;;;3.42;1.45;;;;;;;;;;5016478;28;20054;-70
2022/11/24 06:36:32;;;;;;;4.10;1.58;;;;;;;;;;5020510;28;20539;-70
2022/11/24 06:39:03;;;;;;;3.72;1.25;;;;;;;;;;5015639;28;20359;-69
2022/11/24 06:41:29;;;;;;;5.72;2.13;;;;;;;;;;5021451;28;20070;-71
2022/11/24 06:43:55;;;;;;;1.70;1.20;;;;;;;;;;5020502;28;20050;-69
2022/11/24 06:46:22;;;;;;;4.75;2.03;;;;;;;;;;5019411;28;20165;-70
2022/11/24 06:48:52;;;;;;;3.25;1.40;;;;;;;;;;5011719;28;20129;-70
2022/11/24 06:51:18;;;;;;;4.35;1.90;;;;;;;;;;5020675;28;20058;-70
2022/11/24 06:53:44;;;;;;;6.50;2.28;;;;;;;;;;5022573;28;20523;-70
2022/11/24 06:56:11;;;;;;;7.85;2.55;;;;;;;;;;5028152;28;20049;-69
2022/11/24 06:58:45;;;;;;;5.40;1.98;;;;;;;;;;5004804;28;20046;-70
2022/11/24 07:01:15;;;;;;;2.70;2.00;;;;;;;;;;5017511;28;20056;-70
2022/11/24 07:03:42;;;;;;;5.15;2.10;;;;;;;;;;5019913;28;20507;-69
2022/11/24 07:06:09;;;;;;;5.95;2.78;;;;;;;;;;5021747;28;20050;-70
2022/11/24 07:08:35;;;;;;;9.63;3.03;;;;;;;;;;5024222;28;20163;-68
2022/11/24 07:11:05;;;;;;;7.45;3.22;;;;;;;;;;5024220;28;20053;-69
2022/11/24 07:13:31;;;;;;;8.43;3.80;;;;;;;;;;5004564;28;20551;-68
2022/11/24 07:15:58;;;;;;;5.93;3.25;;;;;;;;;;5013304;28;20065;-70
2022/11/24 07:18:24;;;;;;;8.20;3.17;;;;;;;;;;5013122;28;20569;-71
2022/11/24 07:20:51;;;;;;;6.35;3.75;;;;;;;;;;5025135;28;20046;-69
2022/11/24 07:23:17;;;;;;;7.53;3.83;;;;;;;;;;5019028;28;20514;-71
2022/11/24 07:25:43;;;;;;;5.97;4.07;;;;;;;;;;5014331;28;20094;-71
2022/11/24 07:28:09;;;;;;;6.60;3.70;;;;;;;;;;5004554;28;20105;-71
2022/11/24 07:30:36;;;;;;;8.85;4.30;;;;;;;;;;5035542;28;20081;-71
2022/11/24 07:33:02;;;;;;;8.00;4.75;;;;;;;;;;5041580;28;20054;-71
2022/11/24 07:35:29;;;;;;;8.98;5.78;;;;;;;;;;5032630;28;20053;-69
2022/11/24 07:37:56;;;;;;;8.23;5.82;;;;;;;;;;5012569;28;20050;-70
2022/11/24 07:40:23;;;;;;;8.45;6.18;;;;;;;;;;5035397;28;20057;-70
2022/11/24 07:42:49;;;;;;;9.25;5.50;;;;;;;;;;5031089;28;20049;-69
2022/11/24 07:45:15;;;;;;;8.77;5.47;;;;;;;;;;5005283;28;20055;-68
2022/11/24 07:47:42;;;;;;;10.13;5.93;;;;;;;;;;5009709;28;20591;-69
2022/11/24 07:50:09;;;;;;;9.60;6.05;;;;;;;;;;5009923;28;20046;-71
2022/11/24 07:52:36;;;;;;;13.90;7.05;;;;;;;;;;5008342;28;20046;-71
2022/11/24 07:55:03;;;;;;;8.95;5.82;;;;;;;;;;5008657;28;20169;-70
2022/11/24 07:57:29;;;;;;;10.43;6.30;;;;;;;;;;5003612;28;20077;-68
2022/11/24 07:59:56;;;;;;;11.50;6.90;;;;;;;;;;5017925;28;20050;-70
2022/11/24 08:02:22;;;;;;;12.90;5.88;;;;;;;;;;5017516;28;20495;-70
2022/11/24 08:04:49;;;;;;;11.57;6.03;;;;;;;;;;5015348;28;20054;-69
2022/11/24 08:07:15;;;;;;;10.95;5.72;;;;;;;;;;5005061;28;20515;-70
2022/11/24 08:09:41;;;;;;;10.88;6.30;;;;;;;;;;5022759;28;20508;-68
2022/11/24 08:12:08;;;;;;;12.32;6.07;;;;;;;;;;5008412;28;20696;-69
2022/11/24 08:14:34;;;;;;;12.68;6.05;;;;;;;;;;5009059;28;20050;-71
2022/11/24 08:17:01;;;;;;;11.38;5.60;;;;;;;;;;5030205;28;20045;-70
2022/11/24 08:19:27;;;;;;;10.32;6.00;;;;;;;;;;5021265;28;20058;-70
2022/11/24 08:21:53;;;;;;;14.27;6.75;;;;;;;;;;5014282;28;20054;-71
2022/11/24 08:24:20;;;;;;;13.10;5.75;;;;;;;;;;5011202;28;20062;-71
2022/11/24 08:26:46;;;;;;;13.27;5.55;;;;;;;;;;5002956;28;20059;-68
2022/11/24 08:29:12;;;;;;;8.38;4.85;;;;;;;;;;5003789;28;20055;-71
2022/11/24 08:31:39;;;;;;;10.10;5.18;;;;;;;;;;5014752;28;20060;-69
2022/11/24 08:34:05;;;;;;;8.98;5.45;;;;;;;;;;5037176;28;20053;-69
2022/11/24 08:36:32;;;;;;;10.45;5.38;;;;;;;;;;5022001;28;20058;-71
2022/11/24 08:38:59;;;;;;;14.77;5.65;;;;;;;;;;5025651;28;20050;-70
2022/11/24 08:41:26;;;;;;;10.95;5.72;;;;;;;;;;5018685;28;20060;-71
2022/11/24 08:43:52;;;;;;;13.88;6.13;;;;;;;;;;5011467;28;20627;-70
2022/11/24 08:46:19;;;;;;;11.40;5.30;;;;;;;;;;5008294;28;20517;-72
2022/11/24 08:48:49;;;;;;;9.32;4.82;;;;;;;;;;5020368;28;20052;-70
2022/11/24 08:51:18;;;;;;;9.68;5.50;;;;;;;;;;5023503;28;20050;-70
2022/11/24 08:53:44;;;;;;;10.70;5.18;;;;;;;;;;5013350;28;20205;-71
2022/11/24 08:56:11;;;;;;;16.15;5.55;;;;;;;;;;5019161;28;20516;-70
2022/11/24 08:58:38;;;;;;;11.05;5.20;;;;;;;;;;5016151;28;20518;-72
2022/11/24 09:01:06;;;;;;;9.45;4.60;;;;;;;;;;5015559;28;20508;-70
2022/11/24 09:03:33;;;;;;;13.43;5.68;;;;;;;;;;5005152;28;20050;-69
2022/11/24 09:06:00;;;;;;;9.57;4.45;;;;;;;;;;5003295;28;20055;-69
2022/11/24 09:08:27;;;;;;;10.23;4.72;;;;;;;;;;5013828;28;20046;-69
2022/11/24 09:10:57;;;;;;;17.10;5.40;;;;;;;;;;5038907;28;20359;-71
2022/11/24 09:13:24;;;;;;;11.57;5.57;;;;;;;;;;5029714;28;20086;-71
2022/11/24 09:15:50;;;;;;;9.02;3.97;;;;;;;;;;5022997;28;20053;-71
2022/11/24 09:18:16;;;;;;;11.18;4.43;;;;;;;;;;5021764;28;20558;-71
2022/11/24 09:20:43;;;;;;;10.52;4.25;;;;;;;;;;5023708;28;20042;-68
2022/11/24 09:23:09;;;;;;;11.35;4.63;;;;;;;;;;5020409;28;20060;-71
2022/11/24 09:25:36;;;;;;;11.27;3.88;;;;;;;;;;5030871;28;20140;-71
2022/11/24 09:28:02;;;;;;;9.88;4.28;;;;;;;;;;5030607;28;20054;-71
2022/11/24 09:30:29;;;;;;;10.45;3.90;;;;;;;;;;5008325;28;20053;-72
2022/11/24 09:32:55;;;;;;;17.73;5.15;;;;;;;;;;5014537;28;20140;-69
2022/11/24 09:35:23;;;;;;;9.70;3.75;;;;;;;;;;5027625;28;20086;-71
2022/11/24 09:37:50;;;;;;;16.92;3.75;;;;;;;;;;5005763;28;20052;-72
2022/11/24 09:40:16;;;;;;;13.68;3.42;;;;;;;;;;5019068;28;20061;-68
2022/11/24 09:42:45;;;;;;;10.07;3.10;;;;;;;;;;5023887;28;20050;-71
2022/11/24 09:45:38;;;;;;;11.15;3.05;;;;;;;;;;5021809;28;20042;-71
2022/11/24 09:48:26;;;;;;;11.45;3.45;;;;;;;;;;5024405;28;20058;-71
2022/11/24 09:50:56;;;;;;;12.77;3.58;;;;;;;;;;5022193;28;20137;-69
2022/11/24 09:53:22;;;;;;;10.68;3.10;;;;;;;;;;5017382;28;20054;-69
2022/11/24 09:55:50;;;;;;;18.13;4.22;;;;;;;;;;5022837;28;20655;-70
2022/11/24 09:58:31;;;;;;;14.13;4.07;;;;;;;;;;5018806;28;20413;-71
2022/11/24 10:00:58;;;;;;;9.32;2.30;;;;;;;;;;5022365;28;20053;-72
2022/11/24 10:03:36;;;;;;;11.32;2.97;;;;;;;;;;5023655;28;20046;-70
2022/11/24 10:06:09;;;;;;;13.45;2.72;;;;;;;;;;5022375;28;20137;-71
2022/11/24 10:09:01;;;;;;;8.32;2.75;;;;;;;;;;5028865;28;20060;-71
2022/11/24 10:11:35;;;;;;;9.85;2.78;;;;;;;;;;5010286;28;20061;-73
2022/11/24 10:14:20;;;;;;;12.75;2.67;;;;;;;;;;5017972;28;20061;-70
2022/11/24 10:16:55;;;;;;;10.18;3.33;;;;;;;;;;5021881;28;20062;-71
2022/11/24 10:19:40;;;;;;;11.25;3.67;;;;;;;;;;5019232;28;20526;-71
2022/11/24 10:22:10;;;;;;;17.75;2.80;;;;;;;;;;5046736;28;20050;-70
2022/11/24 10:24:55;;;;;;;12.05;2.30;;;;;;;;;;5018673;28;20632;-70
2022/11/24 10:27:27;;;;;;;11.33;2.37;;;;;;;;;;5028369;28;20053;-70
2022/11/24 10:29:54;;;;;;;11.68;2.88;;;;;;;;;;5029216;28;20409;-71
2022/11/24 10:32:20;;;;;;;8.65;2.30;;;;;;;;;;5025563;28;20145;-71
2022/11/24 10:34:50;;;;;;;11.48;2.55;;;;;;;;;;5031110;28;20054;-71
2022/11/24 10:37:27;;;;;;;10.55;2.55;;;;;;;;;;5024427;28;20127;-71
2022/11/24 10:40:12;;;;;;;10.95;2.58;;;;;;;;;;5028849;28;20064;-71
2022/11/24 10:42:59;;;;;;;12.23;2.25;;;;;;;;;;5024842;28;20108;-69
2022/11/24 10:45:26;;;;;;;13.23;2.70;;;;;;;;;;5036371;28;20046;-70
2022/11/24 10:47:53;;;;;;;12.40;4.53;;;;;;;;;;5039583;28;20080;-70
2022/11/24 10:50:21;;;;;;;9.07;2.35;;;;;;;;;;5043805;28;20053;-69
2022/11/24 10:52:54;;;;;;;8.20;2.42;;;;;;;;;;5020950;28;20165;-70
2022/11/24 10:55:20;;;;;;;17.92;4.03;;;;;;;;;;5036740;28;20054;-70
2022/11/24 10:57:47;;;;;;;12.13;2.50;;;;;;;;;;5017629;28;20138;-69
2022/11/24 11:00:19;;;;;;;19.08;4.18;;;;;;;;;;5025704;28;20139;-70
2022/11/24 11:02:50;;;;;;;13.50;2.20;;;;;;;;;;5018854;28;20411;-71
2022/11/24 11:05:32;;;;;;;10.75;2.42;;;;;;;;;;5022347;28;20544;-72
2022/11/24 11:08:09;;;;;;;10.55;2.92;;;;;;;;;;5029222;28;20050;-71
2022/11/24 11:10:36;;;;;;;15.80;3.20;;;;;;;;;;5017408;28;20051;-70
2022/11/24 11:13:20;;;;;;;12.27;2.30;;;;;;;;;;5025094;28;20054;-70
2022/11/24 11:15:47;;;;;;;11.63;3.08;;;;;;;;;;5042442;28;20535;-70
2022/11/24 11:18:15;;;;;;;12.23;2.95;;;;;;;;;;5022240;28;20464;-69
2022/11/24 11:20:49;;;;;;;9.95;3.00;;;;;;;;;;5023031;28;20162;-69
2022/11/24 11:23:21;;;;;;;10.30;2.40;;;;;;;;;;5023588;28;20536;-70
2022/11/24 11:25:47;;;;;;;11.98;2.58;;;;;;;;;;5025003;28;20064;-71
2022/11/24 11:28:20;;;;;;;17.92;3.28;;;;;;;;;;5039616;28;20049;-69
2022/11/24 11:31:07;;;;;;;15.27;5.18;;;;;;;;;;5044613;28;20503;-71
2022/11/24 11:33:53;;;;;;;7.43;2.85;;;;;;;;;;5042507;28;20116;-70
2022/11/24 11:36:30;;;;;;;12.52;2.90;;;;;;;;;;5042639;28;20069;-70
2022/11/24 11:38:57;;;;;;;12.35;2.53;;;;;;;;;;5044190;28;20501;-71
2022/11/24 11:41:35;;;;;;;8.45;2.67;;;;;;;;;;5029391;28;20453;-69
2022/11/24 11:44:21;;;;;;;17.33;3.65;;;;;;;;;;5024095;28;20077;-70
2022/11/24 11:46:48;;;;;;;13.05;3.35;;;;;;;;;;5023013;28;20503;-70
2022/11/24 11:49:14;;;;;;;8.85;2.35;;;;;;;;;;5023434;28;20054;-70
2022/11/24 11:51:55;;;;;;;17.50;2.75;;;;;;;;;;5023288;28;20093;-69
2022/11/24 11:54:21;;;;;;;13.68;3.22;;;;;;;;;;5022615;28;20555;-70
2022/11/24 11:56:49;;;;;;;15.32;3.88;;;;;;;;;;5017122;28;20525;-70
2022/11/24 11:59:41;;;;;;;13.48;3.20;;;;;;;;;;5025396;28;20056;-71
2022/11/24 12:02:26;;;;;;;19.35;3.28;;;;;;;;;;5024805;28;20566;-69
2022/11/24 12:04:53;;;;;;;;;;;;;;;;;;5020377;28;20553;-71
2022/11/24 12:07:19;;;;;;;14.10;3.38;;;;;;;;;;5036622;28;46814;-70
2022/11/24 12:09:48;;;;;;;11.20;2.67;;;;;;;;;;5043093;28;20400;-69
2022/11/24 12:12:14;;;;;;;10.80;3.15;;;;;;;;;;5043585;28;20053;-69
2022/11/24 12:14:59;;;;;;;11.57;2.67;;;;;;;;;;5043707;28;20049;-69
2022/11/24 12:17:33;;;;;;;14.35;3.83;;;;;;;;;;5018697;28;20598;-69
2022/11/24 12:20:07;;;;;;;12.88;3.25;;;;;;;;;;5033088;28;20076;-69
2022/11/24 12:22:59;;;;;;;18.08;3.60;;;;;;;;;;5031538;28;20056;-70
2022/11/24 12:25:32;;;;;;;11.27;3.03;;;;;;;;;;5020647;28;20054;-69
2022/11/24 12:28:22;;;;;;;19.02;2.88;;;;;;;;;;5023546;28;20137;-69
2022/11/24 12:30:57;;;;;;;10.95;2.28;;;;;;;;;;5014722;28;20050;-69
2022/11/24 12:33:23;;;;;;;9.18;2.97;;;;;;;;;;5029776;28;20496;-69
2022/11/24 12:36:09;;;;;;;19.35;3.33;;;;;;;;;;5041755;28;20069;-68
2022/11/24 12:38:53;;;;;;;13.32;3.05;;;;;;;;;;5041794;28;20053;-71
2022/11/24 12:41:22;;;;;;;15.93;3.25;;;;;;;;;;5040997;28;20065;-71
2022/11/24 12:44:24;;;;;;;19.20;3.78;;;;;;;;;;5034493;28;20050;-68
2022/11/24 12:46:50;;;;;;;19.90;3.40;;;;;;;;;;5013131;28;20053;-72
2022/11/24 12:49:28;;;;;;;5.05;2.22;;;;;;;;;;5020397;28;20528;-70
2022/11/24 12:51:58;;;;;;;18.02;3.08;;;;;;;;;;5021316;28;20061;-68
2022/11/24 12:54:25;;;;;;;14.18;2.88;;;;;;;;;;5035244;28;20227;-70
2022/11/24 12:56:55;;;;;;;11.27;3.05;;;;;;;;;;5027672;28;20050;-70
2022/11/24 12:59:44;;;;;;;20.25;3.35;;;;;;;;;;5016764;28;20049;-71
2022/11/24 13:02:33;;;;;;;14.70;3.50;;;;;;;;;;5021554;28;20540;-69
2022/11/24 13:04:59;;;;;;;11.95;3.55;;;;;;;;;;5015736;28;20362;-68
2022/11/24 13:07:34;;;;;;;15.88;3.13;;;;;;;;;;5034703;28;20585;-71
2022/11/24 13:10:20;;;;;;;12.43;3.08;;;;;;;;;;5002922;28;20069;-71
2022/11/24 13:13:13;;;;;;;16.77;2.60;;;;;;;;;;5041562;28;20061;-69
2022/11/24 13:15:52;;;;;;;14.68;3.35;;;;;;;;;;5012869;28;20046;-71
2022/11/24 13:18:46;;;;;;;13.45;2.90;;;;;;;;;;5002389;28;20074;-72
2022/11/24 13:21:44;;;;;;;18.00;3.50;;;;;;;;;;5001342;28;20050;-70
2022/11/24 13:24:16;;;;;;;15.45;2.78;;;;;;;;;;5032888;28;20064;-70
2022/11/24 13:26:47;;;;;;;18.38;3.10;;;;;;;;;;5033243;28;20148;-69
2022/11/24 13:29:31;;;;;;;10.02;2.40;;;;;;;;;;5029970;28;20052;-70
2022/11/24 13:32:01;;;;;;;13.98;3.47;;;;;;;;;;5030852;28;20184;-70
2022/11/24 13:34:39;;;;;;;19.35;2.53;;;;;;;;;;4992291;28;1092246;-71
2022/11/24 13:37:15;;;;;;;14.75;3.28;;;;;;;;;;5031750;28;20115;-70
2022/11/24 13:40:02;;;;;;;12.20;2.58;;;;;;;;;;5035590;28;20060;-70
2022/11/24 13:42:29;;;;;;;13.32;3.17;;;;;;;;;;5021319;28;20050;-70
2022/11/24 13:45:29;;;;;;;15.68;4.03;;;;;;;;;;5035024;28;20095;-69
2022/11/24 13:47:56;;;;;;;13.70;2.70;;;;;;;;;;5028234;28;20559;-70
2022/11/24 13:50:36;;;;;;;14.13;3.50;;;;;;;;;;5030666;28;20061;-69
2022/11/24 13:53:07;;;;;;;14.70;3.53;;;;;;;;;;5037485;28;20144;-69
2022/11/24 13:55:37;;;;;;;14.13;2.20;;;;;;;;;;5015887;28;20050;-69
2022/11/24 13:58:12;;;;;;;8.60;2.33;;;;;;;;;;5024914;28;20053;-69
2022/11/24 14:00:57;;;;;;;18.13;3.42;;;;;;;;;;5028723;28;20045;-69
2022/11/24 14:03:33;;;;;;;8.83;2.90;;;;;;;;;;5041167;28;20080;-68
2022/11/24 14:05:59;;;;;;;;;;;;;;;;;;5020480;28;20056;-69
2022/11/24 14:08:28;;;;;;;16.02;2.85;;;;;;;;;;5022970;28;46658;-68
2022/11/24 14:10:55;;;;;;;17.90;2.85;;;;;;;;;;5021778;28;20176;-69
2022/11/24 14:13:22;;;;;;;20.10;3.15;;;;;;;;;;5032545;28;20065;-69
2022/11/24 14:16:03;;;;;;;15.15;3.00;;;;;;;;;;5018742;28;20054;-69
2022/11/24 14:18:33;;;;;;;18.55;3.88;;;;;;;;;;5008065;28;20153;-69
2022/11/24 14:21:18;;;;;;;11.45;2.85;;;;;;;;;;5008736;28;20050;-69
2022/11/24 14:24:04;;;;;;;12.20;2.57;;;;;;;;;;5021912;28;20080;-69
2022/11/24 14:26:31;;;;;;;17.15;3.92;;;;;;;;;;5017966;28;20634;-69
2022/11/24 14:29:03;;;;;;;13.02;3.50;;;;;;;;;;5021182;28;20054;-69
2022/11/24 14:31:29;;;;;;;16.83;3.33;;;;;;;;;;5010482;28;20038;-68
2022/11/24 14:34:11;;;;;;;16.42;3.78;;;;;;;;;;5009240;28;20113;-70
2022/11/24 14:36:38;;;;;;;19.02;2.58;;;;;;;;;;5036757;28;20056;-70
2022/11/24 14:39:04;;;;;;;13.90;2.97;;;;;;;;;;5041446;28;20112;-69
2022/11/24 14:41:32;;;;;;;17.02;3.17;;;;;;;;;;5027829;28;20054;-68
2022/11/24 14:44:07;;;;;;;16.70;2.92;;;;;;;;;;5018908;28;20558;-68
2022/11/24 14:46:35;;;;;;;15.65;3.00;;;;;;;;;;5021783;28;20132;-69
2022/11/24 14:49:01;;;;;;;11.52;3.17;;;;;;;;;;5017604;28;20058;-68
2022/11/24 14:51:31;;;;;;;16.45;2.85;;;;;;;;;;5001827;28;20051;-69